Time;durP1;ratioP1;P1;durP2;ratioP2;P2;SDS_P1;SDS_P2;PMS_P1;PMS_P2;Temp;Humidity;BMP_temperature;BMP_pressure;BME280_temperature;BME280_humidity;BME280_pressure;Samples;Min_cycle;Max_cycle;Signal;HPM_P1;HPM_P2
2022/10/07 13:50:29;;;;;;;6.78;3.28;;;;;;;;;;6184982;22;20357;-83
2022/10/07 13:52:56;;;;;;;4.95;3.45;;;;;;;;;;6215328;23;20013;-85
2022/10/07 13:55:24;;;;;;;3.55;3.17;;;;;;;;;;6215574;23;20351;-84
2022/10/07 13:57:50;;;;;;;7.13;3.60;;;;;;;;;;6215864;23;20463;-84
2022/10/07 14:00:16;;;;;;;3.97;3.20;;;;;;;;;;6189506;23;20090;-84
2022/10/07 14:02:42;;;;;;;4.45;3.80;;;;;;;;;;6190111;23;20039;-85
2022/10/07 14:05:28;;;;;;;3.88;3.10;;;;;;;;;;6216168;23;20427;-85
2022/10/07 14:07:55;;;;;;;7.03;3.58;;;;;;;;;;6216379;23;20005;-85
2022/10/07 14:10:25;;;;;;;4.38;3.28;;;;;;;;;;6190406;23;20005;-84
2022/10/07 14:12:57;;;;;;;3.70;3.40;;;;;;;;;;6217656;23;19997;-85
2022/10/07 14:15:26;;;;;;;5.60;3.22;;;;;;;;;;6189632;23;20031;-83
2022/10/07 14:17:59;;;;;;;3.80;3.50;;;;;;;;;;6189428;23;20092;-84
2022/10/07 14:20:34;;;;;;;3.60;3.15;;;;;;;;;;6216170;23;20004;-85
2022/10/07 14:23:04;;;;;;;3.53;3.22;;;;;;;;;;6216035;23;20005;-84
2022/10/07 14:25:48;;;;;;;6.82;3.70;;;;;;;;;;6189423;23;20013;-84
2022/10/07 14:28:18;;;;;;;5.80;3.42;;;;;;;;;;6216055;23;20005;-84
2022/10/07 14:37:07;;;;;;;7.40;3.45;;;;;;;;;;6215917;23;20047;-87
2022/10/07 14:39:44;;;;;;;3.78;3.25;;;;;;;;;;6215926;23;20076;-83
2022/10/07 14:42:16;;;;;;;4.40;3.70;;;;;;;;;;6215708;23;20419;-84
2022/10/07 14:44:43;;;;;;;3.88;3.55;;;;;;;;;;6189433;23;20009;-85
2022/10/07 14:47:14;;;;;;;3.70;3.30;;;;;;;;;;6189319;23;20008;-85
2022/10/07 14:49:41;;;;;;;3.90;3.58;;;;;;;;;;6215175;23;20020;-86
2022/10/07 14:52:18;;;;;;;3.63;3.33;;;;;;;;;;6188900;23;20087;-84
2022/10/07 14:54:44;;;;;;;4.97;4.40;;;;;;;;;;6189259;23;20020;-84
2022/10/07 14:57:09;;;;;;;6.28;5.65;;;;;;;;;;6215904;23;19997;-85
2022/10/07 14:59:36;;;;;;;6.70;6.00;;;;;;;;;;6215644;23;20008;-85
2022/10/07 15:02:01;;;;;;;4.32;3.70;;;;;;;;;;6189138;23;20432;-84
2022/10/07 15:04:26;;;;;;;4.70;3.50;;;;;;;;;;6189086;23;20012;-88
2022/10/07 15:06:52;;;;;;;4.85;3.20;;;;;;;;;;6215749;23;20035;-84
2022/10/07 15:09:18;;;;;;;4.13;3.58;;;;;;;;;;6215744;23;20001;-84
2022/10/07 15:11:43;;;;;;;3.58;3.28;;;;;;;;;;6215945;23;20004;-88
2022/10/07 15:14:10;;;;;;;4.95;3.47;;;;;;;;;;6189219;23;20015;-84
2022/10/07 15:16:36;;;;;;;4.03;3.70;;;;;;;;;;6189074;23;20401;-84
2022/10/07 15:19:02;;;;;;;3.90;3.50;;;;;;;;;;6189113;23;20040;-84
2022/10/07 15:21:30;;;;;;;4.07;3.17;;;;;;;;;;6189152;23;20017;-85
2022/10/07 15:23:56;;;;;;;5.68;3.72;;;;;;;;;;6190824;23;20004;-84
2022/10/07 15:26:23;;;;;;;3.70;3.40;;;;;;;;;;6217096;23;20427;-84
2022/10/07 15:28:53;;;;;;;4.18;3.50;;;;;;;;;;6217222;23;20015;-89
2022/10/07 15:31:20;;;;;;;5.00;3.10;;;;;;;;;;6190850;23;20012;-85
2022/10/07 15:33:46;;;;;;;3.63;3.20;;;;;;;;;;6217401;23;20001;-83
2022/10/07 15:36:14;;;;;;;4.75;4.10;;;;;;;;;;6190655;23;20055;-86
2022/10/07 15:38:40;;;;;;;4.90;3.30;;;;;;;;;;6190580;23;20013;-83
2022/10/07 15:41:06;;;;;;;4.22;3.63;;;;;;;;;;6190766;23;20011;-84
2022/10/07 15:43:33;;;;;;;3.88;3.40;;;;;;;;;;6217158;23;20424;-85
2022/10/07 15:46:00;;;;;;;3.70;3.40;;;;;;;;;;6217016;23;20012;-82
2022/10/07 15:48:27;;;;;;;4.28;3.22;;;;;;;;;;6216993;23;20079;-84
2022/10/07 15:50:54;;;;;;;4.78;3.28;;;;;;;;;;6190438;23;20091;-85
2022/10/07 15:53:21;;;;;;;3.97;3.67;;;;;;;;;;6190890;23;20004;-85
2022/10/07 15:55:55;;;;;;;3.63;3.30;;;;;;;;;;6191066;23;20008;-85
2022/10/07 15:58:23;;;;;;;3.35;3.05;;;;;;;;;;6191227;23;20078;-91
2022/10/07 16:00:55;;;;;;;3.90;3.50;;;;;;;;;;6191621;23;20428;-86
2022/10/07 16:03:21;;;;;;;4.40;3.55;;;;;;;;;;6190791;23;20004;-85
2022/10/07 16:05:58;;;;;;;3.88;3.50;;;;;;;;;;6217502;23;20423;-86
2022/10/07 16:08:24;;;;;;;3.47;3.17;;;;;;;;;;6217435;23;20427;-86
2022/10/07 16:10:49;;;;;;;2.92;2.72;;;;;;;;;;6190774;23;20008;-86
2022/10/07 16:13:14;;;;;;;4.38;3.60;;;;;;;;;;6190189;23;20494;-86
2022/10/07 16:15:41;;;;;;;3.90;3.55;;;;;;;;;;6191050;23;20009;-86
2022/10/07 16:18:06;;;;;;;3.97;3.13;;;;;;;;;;6190522;23;20032;-86
2022/10/07 16:20:32;;;;;;;3.90;3.60;;;;;;;;;;6191642;23;20424;-83
2022/10/07 16:25:35;;;;;;;4.32;3.92;;;;;;;;;;6187458;23;20436;-81
2022/10/07 16:30:49;;;;;;;3.70;3.40;;;;;;;;;;6186679;23;20063;-81
2022/10/07 16:33:15;;;;;;;4.30;3.53;;;;;;;;;;6186521;23;20005;-80
2022/10/07 16:35:41;;;;;;;4.05;3.22;;;;;;;;;;6186525;23;20431;-81
2022/10/07 16:38:06;;;;;;;3.67;3.38;;;;;;;;;;6187155;23;20012;-80
2022/10/07 16:40:31;;;;;;;6.20;3.38;;;;;;;;;;6186552;23;20004;-81
2022/10/07 16:42:58;;;;;;;6.43;3.65;;;;;;;;;;6186557;23;20001;-80
2022/10/07 16:45:24;;;;;;;3.53;3.22;;;;;;;;;;6186657;23;20012;-81
2022/10/07 16:47:49;;;;;;;4.47;3.50;;;;;;;;;;6186407;23;20005;-81
2022/10/07 16:50:15;;;;;;;4.75;3.60;;;;;;;;;;6160303;23;20009;-81
2022/10/07 16:52:40;;;;;;;3.45;3.15;;;;;;;;;;6186729;23;20005;-78
2022/10/07 16:55:06;;;;;;;4.43;3.30;;;;;;;;;;6186542;23;20084;-83
2022/10/07 16:57:33;;;;;;;3.38;3.08;;;;;;;;;;6186330;23;20029;-80
2022/10/07 16:59:58;;;;;;;3.05;2.85;;;;;;;;;;6186871;23;20009;-82
2022/10/07 17:02:23;;;;;;;3.80;3.47;;;;;;;;;;6186376;23;20329;-83
2022/10/07 17:04:49;;;;;;;4.22;3.70;;;;;;;;;;6186416;23;20004;-81
2022/10/07 17:07:14;;;;;;;4.10;3.50;;;;;;;;;;6186649;23;20008;-81
2022/10/07 17:09:40;;;;;;;3.80;3.42;;;;;;;;;;6186275;23;20012;-81
2022/10/07 17:12:05;;;;;;;5.70;3.97;;;;;;;;;;6186447;23;20040;-83
2022/10/07 17:14:32;;;;;;;5.85;5.07;;;;;;;;;;6186348;23;20051;-82
2022/10/07 17:16:59;;;;;;;4.78;4.30;;;;;;;;;;6186179;23;19997;-82
2022/10/07 17:19:27;;;;;;;4.25;3.88;;;;;;;;;;6186095;23;20005;-80
2022/10/07 17:21:55;;;;;;;4.95;4.45;;;;;;;;;;6186119;23;20414;-80
2022/10/07 17:24:21;;;;;;;6.70;4.88;;;;;;;;;;6169201;23;20044;-82
2022/10/07 17:26:48;;;;;;;4.22;3.63;;;;;;;;;;6186789;23;20001;-83
2022/10/07 17:29:17;;;;;;;4.20;3.80;;;;;;;;;;6186183;23;20028;-82
2022/10/07 17:31:47;;;;;;;3.72;3.42;;;;;;;;;;6184656;23;20040;-80
2022/10/07 17:34:14;;;;;;;3.78;3.47;;;;;;;;;;6186621;23;20070;-79
2022/10/07 17:36:40;;;;;;;5.97;3.72;;;;;;;;;;6188344;23;20424;-79
2022/10/07 17:39:06;;;;;;;4.22;3.83;;;;;;;;;;6185427;23;20009;-80
2022/10/07 17:41:33;;;;;;;4.57;3.70;;;;;;;;;;6186804;23;20076;-81
2022/10/07 17:44:01;;;;;;;3.58;3.28;;;;;;;;;;6186802;23;20048;-80
2022/10/07 17:46:28;;;;;;;3.83;3.53;;;;;;;;;;6186777;23;20428;-80
2022/10/07 17:48:57;;;;;;;3.85;3.47;;;;;;;;;;6187420;23;20008;-78
2022/10/07 17:51:26;;;;;;;4.15;3.65;;;;;;;;;;6185807;23;20324;-86
2022/10/07 17:53:52;;;;;;;4.35;3.95;;;;;;;;;;6186262;23;20004;-80
2022/10/07 17:56:18;;;;;;;5.65;3.97;;;;;;;;;;6187662;23;20036;-83
2022/10/07 17:58:46;;;;;;;3.75;3.35;;;;;;;;;;6186543;23;20005;-84
2022/10/07 18:01:22;;;;;;;3.83;3.50;;;;;;;;;;6186012;23;20052;-86
2022/10/07 18:04:17;;;;;;;3.67;3.25;;;;;;;;;;6186374;23;20066;-83
2022/10/07 18:06:42;;;;;;;5.10;3.80;;;;;;;;;;6181453;23;20001;-86
2022/10/07 18:09:11;;;;;;;4.75;3.83;;;;;;;;;;6185031;23;20016;-86
2022/10/07 18:17:07;;;;;;;3.92;3.45;;;;;;;;;;6187311;23;20016;-84
2022/10/07 18:19:33;;;;;;;3.95;3.55;;;;;;;;;;6186348;23;20005;-84
2022/10/07 18:21:59;;;;;;;4.65;3.70;;;;;;;;;;6186027;23;20012;-85
2022/10/07 18:24:27;;;;;;;4.45;3.80;;;;;;;;;;6186152;23;20024;-86
2022/10/07 18:26:54;;;;;;;4.32;3.85;;;;;;;;;;6186830;23;20001;-83
2022/10/07 18:29:20;;;;;;;5.18;4.65;;;;;;;;;;6186733;23;20001;-80
2022/10/07 18:31:46;;;;;;;4.32;3.75;;;;;;;;;;6186225;23;20001;-85
2022/10/07 18:34:11;;;;;;;7.88;5.30;;;;;;;;;;6186558;23;20321;-84
2022/10/07 18:36:37;;;;;;;11.77;9.13;;;;;;;;;;6185964;23;20337;-83
2022/10/07 18:39:06;;;;;;;6.45;5.82;;;;;;;;;;6186287;23;20012;-81
2022/10/07 18:41:32;;;;;;;3.83;3.42;;;;;;;;;;6185862;23;20099;-82
2022/10/07 18:43:57;;;;;;;6.35;3.75;;;;;;;;;;6186601;23;20425;-81
2022/10/07 18:46:23;;;;;;;12.65;10.43;;;;;;;;;;6186214;23;20002;-81
2022/10/07 18:48:48;;;;;;;14.90;10.77;;;;;;;;;;6185931;23;20088;-82
2022/10/07 18:51:15;;;;;;;5.88;5.28;;;;;;;;;;6186185;23;20062;-82
2022/10/07 18:53:42;;;;;;;6.15;5.30;;;;;;;;;;6186085;23;20004;-81
2022/10/07 18:56:14;;;;;;;5.55;4.70;;;;;;;;;;6185808;23;20037;-83
2022/10/07 18:58:42;;;;;;;4.40;4.05;;;;;;;;;;6187562;23;20047;-84
2022/10/07 19:01:12;;;;;;;4.75;4.15;;;;;;;;;;6187719;23;20001;-83
2022/10/07 19:03:37;;;;;;;6.78;4.07;;;;;;;;;;6187646;23;20055;-82
2022/10/07 19:06:12;;;;;;;4.50;4.10;;;;;;;;;;6187992;23;20417;-84
2022/10/07 19:08:38;;;;;;;9.63;5.32;;;;;;;;;;6187649;23;20001;-83
2022/10/07 19:11:04;;;;;;;3.97;3.67;;;;;;;;;;6188056;23;20008;-83
2022/10/07 19:16:21;;;;;;;5.25;4.28;;;;;;;;;;6187921;23;20384;-84
2022/10/07 19:18:48;;;;;;;4.97;4.28;;;;;;;;;;6187978;23;20036;-85
2022/10/07 19:21:17;;;;;;;5.07;3.58;;;;;;;;;;6187999;23;20452;-84
2022/10/07 19:23:42;;;;;;;4.30;3.90;;;;;;;;;;6187842;23;20021;-84
2022/10/07 19:26:08;;;;;;;4.63;4.20;;;;;;;;;;6187770;23;20312;-83
2022/10/07 19:28:38;;;;;;;4.90;3.90;;;;;;;;;;6161341;23;20032;-83
2022/10/07 19:31:13;;;;;;;4.45;4.05;;;;;;;;;;6187646;23;20425;-83
2022/10/07 19:33:38;;;;;;;6.32;3.75;;;;;;;;;;6161336;23;20009;-84
2022/10/07 19:36:04;;;;;;;4.22;3.13;;;;;;;;;;6161377;23;20294;-83
2022/10/07 19:38:30;;;;;;;3.58;3.25;;;;;;;;;;6187480;23;20005;-82
2022/10/07 19:40:56;;;;;;;5.13;3.70;;;;;;;;;;6187495;23;20032;-84
2022/10/07 19:43:21;;;;;;;5.22;4.20;;;;;;;;;;6187410;23;20004;-82
2022/10/07 19:45:46;;;;;;;10.43;4.57;;;;;;;;;;6188163;23;20012;-83
2022/10/07 19:48:12;;;;;;;6.28;4.95;;;;;;;;;;6188084;23;20432;-84
2022/10/07 19:50:38;;;;;;;5.25;4.32;;;;;;;;;;6187302;23;20005;-81
2022/10/07 19:53:04;;;;;;;7.53;5.80;;;;;;;;;;6187500;23;20001;-80
2022/10/07 19:55:31;;;;;;;6.88;4.70;;;;;;;;;;6161011;23;20005;-80
2022/10/07 19:57:58;;;;;;;4.10;3.75;;;;;;;;;;6187123;23;20060;-82
2022/10/07 20:00:26;;;;;;;4.80;4.15;;;;;;;;;;6187658;23;20020;-81
2022/10/07 20:02:55;;;;;;;3.63;3.33;;;;;;;;;;6161152;23;20424;-83
2022/10/07 20:05:26;;;;;;;4.13;3.73;;;;;;;;;;6187523;23;20005;-83
2022/10/07 20:07:52;;;;;;;4.55;3.67;;;;;;;;;;6186842;23;20009;-82
2022/10/07 20:10:17;;;;;;;5.93;4.47;;;;;;;;;;6160486;23;20088;-82
2022/10/07 20:12:43;;;;;;;4.50;4.10;;;;;;;;;;6186852;23;19997;-83
2022/10/07 20:15:12;;;;;;;5.35;4.60;;;;;;;;;;6187073;23;20395;-83
2022/10/07 20:17:38;;;;;;;4.75;4.35;;;;;;;;;;6187127;23;20009;-83
2022/10/07 20:20:04;;;;;;;5.20;4.28;;;;;;;;;;6186761;23;20009;-83
2022/10/07 20:22:30;;;;;;;4.53;4.13;;;;;;;;;;6187129;23;20028;-83
2022/10/07 20:24:56;;;;;;;4.88;4.38;;;;;;;;;;6186778;23;20013;-85
2022/10/07 20:27:21;;;;;;;5.53;4.65;;;;;;;;;;6187036;23;20015;-83
2022/10/07 20:30:01;;;;;;;5.35;4.78;;;;;;;;;;6186967;23;20324;-83
2022/10/07 20:32:33;;;;;;;5.30;4.32;;;;;;;;;;6186978;23;20424;-85
2022/10/07 20:35:00;;;;;;;5.20;4.50;;;;;;;;;;6186945;23;20005;-83
2022/10/07 20:37:25;;;;;;;4.95;4.45;;;;;;;;;;6187025;23;20001;-84
2022/10/07 20:42:35;;;;;;;5.32;4.53;;;;;;;;;;6186842;23;20012;-84
2022/10/07 20:45:02;;;;;;;4.97;4.57;;;;;;;;;;6186803;23;20005;-83
2022/10/07 20:47:30;;;;;;;7.60;4.40;;;;;;;;;;6186785;23;20012;-84
2022/10/07 20:49:58;;;;;;;6.45;5.85;;;;;;;;;;6186578;23;20064;-84
2022/10/07 20:52:26;;;;;;;8.48;5.40;;;;;;;;;;6186955;23;20005;-84
2022/10/07 20:54:52;;;;;;;5.72;5.07;;;;;;;;;;6186805;23;20413;-84
2022/10/07 20:57:21;;;;;;;6.47;5.47;;;;;;;;;;6186939;23;20072;-84
2022/10/07 20:59:47;;;;;;;5.70;5.10;;;;;;;;;;6186877;23;20422;-84
2022/10/07 21:02:14;;;;;;;6.70;5.47;;;;;;;;;;6186800;23;20012;-83
2022/10/07 21:04:39;;;;;;;5.97;5.20;;;;;;;;;;6186634;23;20052;-83
2022/10/07 21:07:07;;;;;;;5.47;4.43;;;;;;;;;;6186693;23;20005;-83
2022/10/07 21:09:35;;;;;;;5.47;4.80;;;;;;;;;;6186847;23;20001;-83
2022/10/07 21:12:01;;;;;;;5.78;4.90;;;;;;;;;;6186363;23;20001;-83
2022/10/07 21:14:28;;;;;;;9.25;6.68;;;;;;;;;;6187298;23;20005;-83
2022/10/07 21:16:56;;;;;;;7.47;6.68;;;;;;;;;;6187053;23;20004;-83
2022/10/07 21:19:22;;;;;;;7.78;6.05;;;;;;;;;;6186213;23;20009;-83
2022/10/07 21:21:49;;;;;;;5.97;5.20;;;;;;;;;;6186848;23;20001;-83
2022/10/07 21:24:14;;;;;;;5.07;4.57;;;;;;;;;;6186858;23;20092;-83
2022/10/07 21:26:40;;;;;;;5.43;4.40;;;;;;;;;;6186752;23;20001;-83
2022/10/07 21:29:08;;;;;;;5.40;4.90;;;;;;;;;;6186582;23;20008;-83
2022/10/07 21:31:34;;;;;;;5.60;5.10;;;;;;;;;;6186756;23;20005;-83
2022/10/07 21:34:06;;;;;;;5.32;4.82;;;;;;;;;;6186886;23;20421;-83
2022/10/07 21:36:32;;;;;;;8.77;5.18;;;;;;;;;;6164440;23;20056;-84
2022/10/07 21:38:58;;;;;;;6.88;5.63;;;;;;;;;;6197357;23;20005;-84
2022/10/07 21:41:33;;;;;;;6.05;5.40;;;;;;;;;;6201854;23;20008;-84
2022/10/07 21:43:59;;;;;;;5.40;4.90;;;;;;;;;;6203138;23;20001;-84
2022/10/07 21:46:26;;;;;;;8.93;5.50;;;;;;;;;;6203592;23;20061;-84
2022/10/07 21:48:53;;;;;;;5.50;4.88;;;;;;;;;;6172413;23;20005;-85
2022/10/07 21:51:20;;;;;;;6.28;4.90;;;;;;;;;;6203894;23;20024;-84
2022/10/07 21:53:50;;;;;;;6.82;5.70;;;;;;;;;;6203986;23;20007;-84
2022/10/07 21:56:15;;;;;;;6.97;5.47;;;;;;;;;;6203325;23;20436;-84
2022/10/07 21:58:41;;;;;;;6.00;4.25;;;;;;;;;;6203385;23;20005;-84
2022/10/07 22:01:11;;;;;;;5.05;4.60;;;;;;;;;;6204671;23;20021;-84
2022/10/07 22:03:37;;;;;;;5.88;4.90;;;;;;;;;;6199903;23;20444;-85
2022/10/07 22:06:05;;;;;;;6.32;5.72;;;;;;;;;;6201305;23;20005;-86
2022/10/07 22:08:35;;;;;;;5.68;5.03;;;;;;;;;;6201966;23;20005;-84
2022/10/07 22:11:12;;;;;;;5.45;4.95;;;;;;;;;;6194323;23;20028;-84
2022/10/07 22:13:46;;;;;;;5.80;5.18;;;;;;;;;;6191389;23;20040;-84
2022/10/07 22:16:14;;;;;;;5.78;5.20;;;;;;;;;;6165995;23;20005;-84
2022/10/07 22:18:42;;;;;;;5.50;5.00;;;;;;;;;;6190170;23;20005;-84
2022/10/07 22:21:13;;;;;;;5.78;5.22;;;;;;;;;;6186666;23;20005;-84
2022/10/07 22:23:40;;;;;;;5.95;5.30;;;;;;;;;;6186586;23;20092;-84
2022/10/07 22:26:08;;;;;;;6.97;5.30;;;;;;;;;;6187461;23;20005;-84
2022/10/07 22:28:37;;;;;;;5.20;4.70;;;;;;;;;;6187000;23;20059;-84
2022/10/07 22:31:05;;;;;;;6.93;5.05;;;;;;;;;;6191594;23;20428;-85
2022/10/07 22:33:35;;;;;;;5.97;4.30;;;;;;;;;;6195653;23;20333;-85
2022/10/07 22:36:05;;;;;;;5.65;5.15;;;;;;;;;;6165822;23;20032;-84
2022/10/07 22:38:30;;;;;;;7.28;5.55;;;;;;;;;;6165228;23;20005;-85
2022/10/07 22:40:56;;;;;;;6.35;5.60;;;;;;;;;;6194972;23;20053;-85
2022/10/07 22:43:21;;;;;;;7.00;6.03;;;;;;;;;;6192518;23;19997;-84
2022/10/07 22:45:57;;;;;;;5.70;5.00;;;;;;;;;;6163370;23;20068;-87
2022/10/07 22:48:24;;;;;;;6.72;5.85;;;;;;;;;;6189892;23;20001;-85
2022/10/07 22:50:50;;;;;;;6.75;5.82;;;;;;;;;;6163227;23;20009;-84
